MHTG/TGU METAR and TAF weather

Enter ICAO airport designator
Station Type Date Time Source
MHTG METAR 2019/08/20 10:00 UTC NOAA

MHTG 201000Z 03004KT 9999 SCT026 19/16 Q1019 A3009 NOSIG


Station Type Date Time Source
MHTG Decoded METAR 2019/08/20 10:00 UTC NOAA

Tegucigalpa, Honduras (MHTG) 14-03N 087-13W 1007M
Aug 20, 2019 - 06:00 AM EDT / 2019.08.20 1000 UTC
Wind: from the NNE (030 degrees) at 5 MPH (4 KT):0
Visibility: greater than 7 mile(s):0
Sky conditions: partly cloudy
Temperature: 66 F (19 C)
Dew Point: 60 F (16 C)
Relative Humidity: 82%
Pressure (altimeter): 30.09 in. Hg (1018 hPa)
ob: MHTG 201000Z 03004KT 9999 SCT026 19/16 Q1019 A3009 NOSIG
cycle: 10

Station Type Date Time Source
MHTG TAF 2019/08/20 06:33 UTC NOAA

TAF MHTG 200425Z 2006/2106 06008KT 8000 VCSH FEW008 SCT025 BKN080 TX30/2020Z TN16/2012Z
BECMG 2013/2015 00000KT 8000 NSW FEW005 SCT026 SCT070
BECMG 2019/2021 09010KT 6000 -TSRA SCT028CB SCT030
BECMG 2101/2103 8000 TSVCSH FEW026CB SCT028 SCT070

Example: see airport list